createdAt,value
2022-12-15T00:00:34.716Z,39.58
2022-12-15T00:01:55.033Z,37.47
2022-12-15T00:03:15.266Z,39.75
2022-12-15T00:04:35.585Z,38.85
2022-12-15T00:05:55.821Z,41.72
2022-12-15T00:07:15.663Z,42.60
2022-12-15T00:08:35.855Z,47.47
2022-12-15T00:09:55.661Z,54.42
2022-12-15T00:11:15.554Z,44.90
2022-12-15T00:12:35.781Z,43.72
2022-12-15T00:13:55.999Z,43.00
2022-12-15T00:15:15.921Z,44.17
2022-12-15T00:16:36.191Z,50.08
2022-12-15T00:17:56.283Z,40.65
2022-12-15T00:19:16.131Z,36.60
2022-12-15T00:20:35.915Z,35.27
2022-12-15T00:21:56.259Z,36.30
2022-12-15T00:23:16.399Z,33.70
2022-12-15T00:24:36.256Z,35.95
2022-12-15T00:25:56.025Z,36.03
2022-12-15T00:27:16.245Z,36.75
2022-12-15T00:28:36.119Z,34.50
2022-12-15T00:29:56.242Z,38.53
2022-12-15T00:31:19.210Z,43.25
2022-12-15T00:32:39.570Z,33.60
2022-12-15T00:33:59.630Z,34.75
2022-12-15T00:35:19.889Z,34.65
2022-12-15T00:36:39.793Z,35.13
2022-12-15T00:37:59.749Z,34.63
2022-12-15T00:39:03.883Z,34.33
2022-12-15T00:40:06.941Z,34.17
2022-12-15T00:41:09.020Z,34.40
2022-12-15T00:42:10.616Z,35.53
2022-12-15T00:43:12.317Z,35.03
2022-12-15T00:44:18.927Z,35.20
2022-12-15T00:45:42.066Z,36.40
2022-12-15T00:46:55.744Z,37.13
2022-12-15T00:47:57.366Z,33.80
2022-12-15T00:48:59.041Z,36.47
2022-12-15T00:50:19.203Z,37.95
2022-12-15T00:51:20.894Z,38.47
2022-12-15T00:52:40.923Z,36.65
2022-12-15T00:54:01.285Z,35.75
2022-12-15T00:55:22.663Z,38.15
2022-12-15T00:56:42.789Z,34.35
2022-12-15T00:58:02.965Z,40.22
2022-12-15T00:59:23.042Z,35.00
2022-12-15T01:00:43.266Z,34.80
2022-12-15T01:02:03.642Z,37.88
2022-12-15T01:03:35.743Z,37.28
2022-12-15T01:04:56.266Z,33.60
2022-12-15T01:06:16.658Z,37.28
2022-12-15T01:07:36.564Z,36.42
2022-12-15T01:08:56.372Z,33.95
2022-12-15T01:10:16.551Z,35.13
2022-12-15T01:11:36.328Z,34.55
2022-12-15T01:12:56.331Z,37.25
2022-12-15T01:14:16.159Z,40.78
2022-12-15T01:15:36.520Z,44.17
2022-12-15T01:16:56.633Z,51.00
2022-12-15T01:18:17.127Z,50.53
2022-12-15T01:19:36.914Z,44.63
2022-12-15T01:20:38.511Z,41.30
2022-12-15T01:21:40.546Z,40.72
2022-12-15T01:22:42.198Z,32.10
2022-12-15T01:23:43.847Z,37.90
2022-12-15T01:24:45.518Z,35.63
2022-12-15T01:25:47.084Z,35.03
2022-12-15T01:26:51.261Z,36.88
2022-12-15T01:27:52.867Z,33.25
2022-12-15T01:28:54.505Z,34.85
2022-12-15T01:29:56.101Z,33.97
2022-12-15T01:30:57.707Z,38.55
2022-12-15T01:31:59.432Z,33.75
2022-12-15T01:33:01.083Z,31.60
2022-12-15T01:34:02.768Z,35.60
2022-12-15T01:35:05.308Z,34.67
2022-12-15T01:36:07.304Z,38.67
2022-12-15T01:37:08.886Z,34.58
2022-12-15T01:38:10.832Z,37.55
2022-12-15T01:39:12.679Z,36.55
2022-12-15T01:40:34.779Z,37.95
2022-12-15T01:41:36.767Z,40.97
2022-12-15T01:42:38.342Z,34.40
2022-12-15T01:43:40.265Z,36.83
2022-12-15T01:44:41.872Z,36.17
2022-12-15T01:45:54.869Z,35.05
2022-12-15T01:46:56.628Z,35.67
2022-12-15T01:47:59.372Z,37.38
2022-12-15T01:49:12.087Z,37.00
2022-12-15T01:50:14.214Z,33.60
2022-12-15T01:51:32.474Z,40.90
2022-12-15T01:52:34.134Z,33.35
2022-12-15T01:53:40.010Z,34.08
2022-12-15T01:54:50.020Z,34.78
2022-12-15T01:55:51.601Z,36.38
2022-12-15T01:56:55.369Z,35.35
2022-12-15T01:57:59.371Z,34.30
2022-12-15T01:59:01.868Z,36.70
2022-12-15T02:00:05.402Z,33.47
2022-12-15T02:01:06.994Z,35.28
2022-12-15T02:02:08.878Z,34.80
2022-12-15T02:03:10.673Z,38.85
2022-12-15T02:04:12.384Z,37.33
2022-12-15T02:05:13.960Z,34.17
2022-12-15T02:06:15.794Z,33.77
2022-12-15T02:07:17.503Z,34.85
2022-12-15T02:08:19.060Z,34.33
2022-12-15T02:09:21.051Z,37.88
2022-12-15T02:10:23.616Z,37.67
2022-12-15T02:11:37.011Z,37.78
2022-12-15T02:12:54.772Z,33.63
2022-12-15T02:14:09.792Z,35.58
2022-12-15T02:15:50.326Z,34.17
2022-12-15T02:17:09.673Z,34.08
2022-12-15T02:18:35.847Z,31.25
2022-12-15T02:19:39.986Z,32.35
2022-12-15T02:21:16.947Z,37.28
2022-12-15T02:22:53.507Z,36.20
2022-12-15T02:23:57.649Z,35.90
2022-12-15T02:25:38.323Z,34.58
2022-12-15T02:27:01.791Z,35.65
2022-12-15T02:28:18.175Z,37.55
2022-12-15T02:29:31.435Z,33.45
2022-12-15T02:30:32.967Z,31.20
2022-12-15T02:31:51.738Z,36.10
2022-12-15T02:32:53.395Z,34.17
2022-12-15T02:34:09.101Z,35.83
2022-12-15T02:35:15.284Z,37.17
2022-12-15T02:36:23.432Z,38.75
2022-12-15T02:37:32.669Z,35.05
2022-12-15T02:38:35.936Z,34.38
2022-12-15T02:39:37.588Z,37.22
2022-12-15T02:40:39.834Z,32.92
2022-12-15T02:41:44.062Z,38.03
2022-12-15T02:42:47.371Z,38.03
2022-12-15T02:43:48.956Z,40.60
2022-12-15T02:44:57.489Z,37.53
2022-12-15T02:46:25.215Z,43.87
2022-12-15T02:47:55.519Z,53.08
2022-12-15T02:49:03.588Z,36.42
2022-12-15T02:50:38.744Z,37.20
2022-12-15T02:51:46.737Z,41.65
2022-12-15T02:52:48.267Z,37.70
2022-12-15T02:53:59.133Z,35.92
2022-12-15T02:55:06.554Z,42.28
2022-12-15T02:56:16.924Z,35.23
2022-12-15T02:57:27.327Z,34.25
2022-12-15T02:58:53.031Z,35.72
2022-12-15T03:00:00.930Z,34.97
2022-12-15T03:01:06.509Z,37.00
2022-12-15T03:02:08.900Z,37.42
2022-12-15T03:03:10.661Z,39.05
2022-12-15T03:04:12.466Z,34.00
2022-12-15T03:05:14.313Z,34.10
2022-12-15T03:06:16.197Z,38.13
2022-12-15T03:07:17.798Z,33.15
2022-12-15T03:08:21.085Z,34.92
2022-12-15T03:09:22.726Z,32.95
2022-12-15T03:10:25.449Z,33.38
2022-12-15T03:11:27.349Z,32.35
2022-12-15T03:12:28.993Z,32.30
2022-12-15T03:13:30.919Z,34.63
2022-12-15T03:14:32.705Z,36.15
2022-12-15T03:15:35.818Z,34.03
2022-12-15T03:16:37.610Z,35.58
2022-12-15T03:17:39.382Z,34.13
2022-12-15T03:18:41.027Z,37.17
2022-12-15T03:19:42.666Z,32.80
2022-12-15T03:20:44.242Z,33.65
2022-12-15T03:21:45.869Z,31.90
2022-12-15T03:22:47.450Z,31.93
2022-12-15T03:23:49.035Z,31.23
2022-12-15T03:24:50.698Z,32.80
2022-12-15T03:25:52.286Z,32.95
2022-12-15T03:26:53.950Z,34.42
2022-12-15T03:27:55.636Z,36.85
2022-12-15T03:28:57.203Z,30.60
2022-12-15T03:29:58.875Z,32.25
2022-12-15T03:31:00.458Z,33.38
2022-12-15T03:32:02.085Z,37.07
2022-12-15T03:33:03.824Z,35.40
2022-12-15T03:34:05.403Z,36.47
2022-12-15T03:35:07.756Z,33.75
2022-12-15T03:36:09.604Z,34.53
2022-12-15T03:37:11.253Z,29.20
2022-12-15T03:38:13.294Z,31.05
2022-12-15T03:39:14.913Z,28.83
2022-12-15T03:40:16.699Z,33.13
2022-12-15T03:41:19.383Z,32.47
2022-12-15T03:42:40.915Z,29.73
2022-12-15T03:43:42.552Z,30.98
2022-12-15T03:44:44.128Z,32.70
2022-12-15T03:45:46.297Z,34.50
2022-12-15T03:46:47.899Z,36.75
2022-12-15T03:47:49.686Z,34.65
2022-12-15T03:48:51.307Z,30.30
2022-12-15T03:49:52.892Z,33.80
2022-12-15T03:50:55.279Z,31.42
2022-12-15T03:51:56.871Z,31.10
2022-12-15T03:53:00.198Z,34.42
2022-12-15T03:54:01.769Z,29.77
2022-12-15T03:55:04.154Z,33.20
2022-12-15T03:56:06.151Z,31.08
2022-12-15T03:57:07.731Z,32.33
2022-12-15T03:58:09.385Z,34.42
2022-12-15T03:59:10.975Z,32.38
2022-12-15T04:00:15.113Z,32.50
2022-12-15T04:01:35.607Z,30.20
2022-12-15T04:02:37.444Z,30.52
2022-12-15T04:03:39.243Z,31.50
2022-12-15T04:04:40.856Z,33.25
2022-12-15T04:05:42.459Z,34.22
2022-12-15T04:06:44.082Z,34.67
2022-12-15T04:07:45.676Z,33.33
2022-12-15T04:08:47.320Z,35.08
2022-12-15T04:09:51.486Z,34.90
2022-12-15T04:10:53.076Z,33.83
2022-12-15T04:11:54.674Z,31.42
2022-12-15T04:13:05.872Z,32.03
2022-12-15T04:14:08.872Z,29.23
2022-12-15T04:15:10.878Z,29.90
2022-12-15T04:16:16.302Z,29.70
2022-12-15T04:17:21.100Z,30.70
2022-12-15T04:18:22.740Z,29.88
2022-12-15T04:19:42.590Z,32.40
2022-12-15T04:20:44.204Z,28.60
2022-12-15T04:21:45.849Z,29.77
2022-12-15T04:22:48.426Z,29.05
2022-12-15T04:24:08.496Z,31.92
2022-12-15T04:25:36.829Z,29.77
2022-12-15T04:26:56.576Z,33.72
2022-12-15T04:28:16.706Z,34.47
2022-12-15T04:29:36.615Z,30.20
2022-12-15T04:30:57.217Z,32.20
2022-12-15T04:32:17.217Z,34.70
2022-12-15T04:33:38.693Z,33.38
2022-12-15T04:34:58.964Z,38.40
2022-12-15T04:36:18.946Z,32.38
2022-12-15T04:37:38.944Z,31.33
2022-12-15T04:38:59.093Z,31.70
2022-12-15T04:40:18.959Z,30.45
2022-12-15T04:41:39.746Z,31.80
2022-12-15T04:43:02.193Z,33.90
2022-12-15T04:44:22.728Z,29.95
2022-12-15T04:45:43.140Z,32.30
2022-12-15T04:47:03.656Z,34.97
2022-12-15T04:48:23.793Z,34.78
2022-12-15T04:49:43.738Z,30.63
2022-12-15T04:51:03.645Z,29.30
2022-12-15T04:52:23.749Z,29.73
2022-12-15T04:53:43.850Z,29.05
2022-12-15T04:55:03.976Z,29.70
2022-12-15T04:56:28.384Z,33.92
2022-12-15T04:57:48.352Z,33.25
2022-12-15T04:59:08.459Z,29.48
2022-12-15T05:00:29.287Z,32.87
2022-12-15T05:01:49.811Z,35.90
2022-12-15T05:03:13.682Z,34.50
2022-12-15T05:04:38.324Z,33.33
2022-12-15T05:05:58.418Z,33.95
2022-12-15T05:07:18.733Z,35.13
2022-12-15T05:08:38.480Z,35.65
2022-12-15T05:10:03.128Z,33.83
2022-12-15T05:11:24.154Z,36.90
2022-12-15T05:12:44.097Z,34.17
2022-12-15T05:14:04.060Z,33.93
2022-12-15T05:15:24.642Z,32.53
2022-12-15T05:16:44.600Z,55.38
2022-12-15T05:18:04.736Z,60.78
2022-12-15T05:19:24.994Z,46.38
2022-12-15T05:20:44.958Z,39.72
2022-12-15T05:22:09.594Z,37.53
2022-12-15T05:23:29.819Z,37.97
2022-12-15T05:24:49.903Z,46.60
2022-12-15T05:26:09.972Z,38.77
2022-12-15T05:27:29.909Z,38.70
2022-12-15T05:28:50.112Z,36.72
2022-12-15T05:30:10.028Z,38.33
2022-12-15T05:31:30.043Z,39.55
2022-12-15T05:32:33.166Z,36.83
2022-12-15T05:33:35.134Z,37.85
2022-12-15T05:34:37.314Z,45.05
2022-12-15T05:35:38.967Z,38.30
2022-12-15T05:36:40.541Z,38.27
2022-12-15T05:37:42.184Z,36.25
2022-12-15T05:38:43.771Z,36.53
2022-12-15T05:39:45.349Z,36.50
2022-12-15T05:40:47.001Z,39.63
2022-12-15T05:41:48.748Z,41.22
2022-12-15T05:42:50.463Z,33.95
2022-12-15T05:43:52.066Z,36.58
2022-12-15T05:44:53.693Z,43.08
2022-12-15T05:45:55.325Z,39.20
2022-12-15T05:46:57.001Z,41.05
2022-12-15T05:47:58.567Z,53.38
2022-12-15T05:49:03.413Z,49.97
2022-12-15T05:50:05.429Z,46.80
2022-12-15T05:51:08.321Z,45.10
2022-12-15T05:52:09.883Z,59.28
2022-12-15T05:53:11.451Z,63.38
2022-12-15T05:54:15.504Z,53.10
2022-12-15T05:55:17.997Z,48.58
2022-12-15T05:56:19.593Z,45.58
2022-12-15T05:57:21.203Z,45.97
2022-12-15T05:58:22.787Z,42.10
2022-12-15T05:59:24.369Z,47.60
2022-12-15T06:00:26.110Z,43.15
2022-12-15T06:01:28.133Z,45.35
2022-12-15T06:02:29.848Z,41.00
2022-12-15T06:03:31.937Z,43.50
2022-12-15T06:04:33.855Z,42.15
2022-12-15T06:05:35.491Z,43.60
2022-12-15T06:06:37.256Z,43.28
2022-12-15T06:07:38.908Z,45.85
2022-12-15T06:08:41.451Z,48.70
2022-12-15T06:09:43.060Z,46.15
2022-12-15T06:10:44.628Z,44.45
2022-12-15T06:11:46.783Z,44.63
2022-12-15T06:12:48.356Z,41.00
2022-12-15T06:13:50.270Z,42.80
2022-12-15T06:14:51.845Z,46.80
2022-12-15T06:16:06.441Z,48.33
2022-12-15T06:17:08.136Z,48.42
2022-12-15T06:18:09.709Z,44.35
2022-12-15T06:19:11.274Z,46.03
2022-12-15T06:20:12.871Z,50.35
2022-12-15T06:21:16.014Z,53.65
2022-12-15T06:22:17.676Z,47.42
2022-12-15T06:23:19.304Z,50.30
2022-12-15T06:24:20.931Z,47.05
2022-12-15T06:25:22.486Z,46.47
2022-12-15T06:26:31.873Z,45.10
2022-12-15T06:27:35.942Z,43.15
2022-12-15T06:28:37.785Z,44.42
2022-12-15T06:29:39.414Z,41.42
2022-12-15T06:30:42.049Z,48.77
2022-12-15T06:31:43.773Z,42.72
2022-12-15T06:32:45.446Z,50.33
2022-12-15T06:34:01.301Z,48.22
2022-12-15T06:35:04.983Z,47.30
2022-12-15T06:36:08.456Z,49.47
2022-12-15T06:37:10.053Z,61.83
2022-12-15T06:38:11.779Z,52.33
2022-12-15T06:39:15.162Z,51.97
2022-12-15T06:40:16.877Z,48.33
2022-12-15T06:41:20.251Z,45.72
2022-12-15T06:42:21.896Z,43.83
2022-12-15T06:43:23.487Z,46.63
2022-12-15T06:44:25.080Z,42.65
2022-12-15T06:45:26.672Z,44.88
2022-12-15T06:46:29.307Z,42.22
2022-12-15T06:47:31.029Z,49.45
2022-12-15T06:48:32.630Z,82.20
2022-12-15T06:49:34.367Z,62.05
2022-12-15T06:50:35.990Z,56.40
2022-12-15T06:51:38.169Z,44.65
2022-12-15T06:52:39.784Z,48.25
2022-12-15T06:53:41.565Z,45.10
2022-12-15T06:54:43.227Z,50.92
2022-12-15T06:55:44.802Z,50.10
2022-12-15T06:56:46.370Z,48.95
2022-12-15T06:57:51.581Z,47.70
2022-12-15T06:58:53.655Z,52.38
2022-12-15T06:59:55.292Z,49.45
2022-12-15T07:00:56.878Z,45.55
2022-12-15T07:01:58.673Z,47.15
2022-12-15T07:03:00.610Z,42.17
2022-12-15T07:04:04.527Z,49.80
2022-12-15T07:05:06.465Z,56.08
2022-12-15T07:06:09.619Z,51.58
2022-12-15T07:07:11.213Z,55.50
2022-12-15T07:08:13.711Z,47.63
2022-12-15T07:09:18.248Z,47.92
2022-12-15T07:10:19.874Z,47.77
2022-12-15T07:11:21.815Z,53.33
2022-12-15T07:12:23.442Z,49.10
2022-12-15T07:13:25.228Z,46.45
2022-12-15T07:14:26.974Z,47.13
2022-12-15T07:15:28.604Z,45.53
2022-12-15T07:16:30.348Z,47.92
2022-12-15T07:17:31.965Z,44.80
2022-12-15T07:18:33.778Z,43.63
2022-12-15T07:19:35.412Z,44.05
2022-12-15T07:20:37.004Z,45.58
2022-12-15T07:21:38.702Z,49.83
2022-12-15T07:22:40.302Z,50.88
2022-12-15T07:23:58.083Z,49.75
2022-12-15T07:25:00.602Z,46.13
2022-12-15T07:26:11.605Z,43.70
2022-12-15T07:27:14.321Z,47.05
2022-12-15T07:28:17.293Z,46.97
2022-12-15T07:29:23.518Z,47.83
2022-12-15T07:30:25.473Z,45.83
2022-12-15T07:31:27.319Z,43.35
2022-12-15T07:32:29.020Z,47.75
2022-12-15T07:33:32.543Z,45.05
2022-12-15T07:34:34.707Z,60.10
2022-12-15T07:35:36.338Z,49.60
2022-12-15T07:36:38.178Z,54.53
2022-12-15T07:37:40.331Z,46.85
2022-12-15T07:38:41.893Z,49.15
2022-12-15T07:39:43.500Z,53.92
2022-12-15T07:40:45.775Z,51.45
2022-12-15T07:41:47.351Z,53.10
2022-12-15T07:42:48.929Z,59.40
2022-12-15T07:43:50.519Z,51.40
2022-12-15T07:44:52.098Z,52.35
2022-12-15T07:45:53.891Z,51.95
2022-12-15T07:46:55.752Z,48.75
2022-12-15T07:47:57.346Z,48.53
2022-12-15T07:48:59.052Z,51.92
2022-12-15T07:50:00.620Z,51.22
2022-12-15T07:51:11.121Z,48.70
2022-12-15T07:52:17.279Z,46.55
2022-12-15T07:53:18.872Z,53.75
2022-12-15T07:54:20.723Z,47.35
2022-12-15T07:55:37.479Z,57.72
2022-12-15T07:56:43.953Z,57.42
2022-12-15T07:57:51.892Z,52.17
2022-12-15T07:58:53.489Z,51.20
2022-12-15T07:59:55.069Z,49.60
2022-12-15T08:01:00.609Z,48.85
2022-12-15T08:02:04.484Z,49.92
2022-12-15T08:03:06.272Z,54.42
2022-12-15T08:04:08.057Z,47.90
2022-12-15T08:05:10.007Z,53.13
2022-12-15T08:06:12.527Z,54.42
2022-12-15T08:07:14.138Z,52.08
2022-12-15T08:08:15.920Z,51.67
2022-12-15T08:09:17.561Z,51.75
2022-12-15T08:10:19.117Z,56.47
2022-12-15T08:11:22.195Z,54.55
2022-12-15T08:12:23.795Z,53.50
2022-12-15T08:14:00.667Z,60.75
2022-12-15T08:14:49.947Z,55.13
2022-12-15T08:15:55.137Z,57.50
2022-12-15T08:16:56.838Z,60.17
2022-12-15T08:17:58.532Z,54.88
2022-12-15T08:19:00.199Z,55.65
2022-12-15T08:20:07.910Z,56.65
2022-12-15T08:21:11.747Z,62.38
2022-12-15T08:22:15.162Z,59.38
2022-12-15T08:23:16.740Z,62.03
2022-12-15T08:24:19.540Z,56.97
2022-12-15T08:25:21.388Z,61.40
2022-12-15T08:26:28.472Z,57.35
2022-12-15T08:27:31.794Z,56.53
2022-12-15T08:28:34.513Z,56.72
2022-12-15T08:29:52.555Z,59.15
2022-12-15T08:30:54.601Z,56.53
2022-12-15T08:31:56.282Z,54.50
2022-12-15T08:32:58.047Z,57.67
2022-12-15T08:34:00.885Z,56.97
2022-12-15T08:35:02.536Z,53.13
2022-12-15T08:36:06.396Z,55.55
2022-12-15T08:37:08.151Z,53.50
2022-12-15T08:38:09.747Z,56.13
2022-12-15T08:39:11.362Z,59.28
2022-12-15T08:40:13.195Z,59.42
2022-12-15T08:41:19.794Z,55.70
2022-12-15T08:42:21.396Z,56.53
2022-12-15T08:43:23.193Z,53.00
2022-12-15T08:44:24.847Z,57.38
2022-12-15T08:45:26.520Z,57.45
2022-12-15T08:46:32.351Z,56.17
2022-12-15T08:47:33.990Z,61.58
2022-12-15T08:48:35.705Z,49.85
2022-12-15T08:49:37.277Z,56.90
2022-12-15T08:50:38.932Z,53.63
2022-12-15T08:51:40.524Z,53.28
2022-12-15T08:52:55.257Z,58.53
2022-12-15T08:54:04.045Z,52.90
2022-12-15T08:55:06.044Z,53.40
2022-12-15T08:56:12.484Z,50.03
2022-12-15T08:57:14.122Z,55.35
2022-12-15T08:58:15.982Z,56.70
2022-12-15T08:59:17.624Z,54.60
2022-12-15T09:00:19.491Z,51.67
2022-12-15T09:01:23.977Z,52.20
2022-12-15T09:02:25.932Z,48.85
2022-12-15T09:03:27.887Z,46.17
2022-12-15T09:04:29.762Z,48.83
2022-12-15T09:05:31.611Z,49.40
2022-12-15T09:06:35.319Z,52.72
2022-12-15T09:07:36.919Z,50.58
2022-12-15T09:08:38.560Z,54.70
2022-12-15T09:09:40.159Z,54.22
2022-12-15T09:10:42.117Z,53.38
2022-12-15T09:11:43.706Z,59.80
2022-12-15T09:12:45.275Z,53.20
2022-12-15T09:13:46.913Z,51.55
2022-12-15T09:14:48.500Z,49.83
2022-12-15T09:16:09.913Z,48.78
2022-12-15T09:17:12.802Z,49.63
2022-12-15T09:18:14.431Z,48.67
2022-12-15T09:19:16.525Z,52.90
2022-12-15T09:20:18.283Z,46.78
2022-12-15T09:21:22.430Z,51.17
2022-12-15T09:22:24.126Z,53.20
2022-12-15T09:23:25.787Z,54.63
2022-12-15T09:24:34.773Z,50.72
2022-12-15T09:25:37.015Z,50.88
2022-12-15T09:26:38.886Z,55.75
2022-12-15T09:27:40.791Z,50.30
2022-12-15T09:28:50.199Z,55.05
2022-12-15T09:29:52.452Z,46.53
2022-12-15T09:30:55.251Z,50.58
2022-12-15T09:31:56.857Z,54.22
2022-12-15T09:32:58.423Z,48.28
2022-12-15T09:34:00.487Z,47.33
2022-12-15T09:35:02.066Z,48.35
2022-12-15T09:36:04.612Z,47.38
2022-12-15T09:37:06.218Z,52.00
2022-12-15T09:38:07.811Z,51.10
2022-12-15T09:39:12.140Z,48.50
2022-12-15T09:40:13.875Z,48.23
2022-12-15T09:41:18.574Z,51.60
2022-12-15T09:42:27.601Z,44.40
2022-12-15T09:43:34.778Z,52.13
2022-12-15T09:44:37.681Z,50.45
2022-12-15T09:45:43.546Z,48.80
2022-12-15T09:47:18.915Z,49.28
2022-12-15T09:48:21.550Z,51.38
2022-12-15T09:49:29.025Z,52.08
2022-12-15T09:50:35.209Z,50.40
2022-12-15T09:51:40.441Z,47.53
2022-12-15T09:52:56.778Z,46.70
2022-12-15T09:53:58.927Z,49.47
2022-12-15T09:55:01.979Z,47.00
2022-12-15T09:56:07.027Z,49.55
2022-12-15T09:57:31.676Z,47.83
2022-12-15T09:58:52.926Z,44.45
2022-12-15T10:00:00.427Z,46.67
2022-12-15T10:01:18.598Z,44.63
2022-12-15T10:02:45.077Z,44.17
2022-12-15T10:04:05.452Z,44.60
2022-12-15T10:06:07.450Z,43.97
2022-12-15T10:07:14.195Z,44.60
2022-12-15T10:08:15.805Z,43.53
2022-12-15T10:09:21.818Z,46.47
2022-12-15T10:10:45.004Z,46.97
2022-12-15T10:11:57.561Z,45.97
2022-12-15T10:13:02.933Z,44.38
2022-12-15T10:14:07.654Z,47.33
2022-12-15T10:15:13.201Z,49.37
2022-12-15T10:17:13.241Z,48.97
2022-12-15T10:18:14.797Z,46.92
2022-12-15T10:19:28.752Z,47.53
2022-12-15T10:20:30.667Z,49.95
2022-12-15T10:21:32.583Z,51.30
2022-12-15T10:22:36.875Z,47.65
2022-12-15T10:23:38.640Z,54.55
2022-12-15T10:26:14.141Z,48.70
2022-12-15T10:27:24.487Z,49.00
2022-12-15T10:28:38.482Z,50.50
2022-12-15T10:30:03.650Z,47.15
2022-12-15T10:31:13.540Z,48.63
2022-12-15T10:32:18.001Z,46.22
2022-12-15T10:33:21.241Z,49.50
2022-12-15T10:34:38.072Z,50.35
2022-12-15T10:35:42.080Z,50.50
2022-12-15T10:36:49.593Z,46.97
2022-12-15T10:37:52.375Z,47.78
2022-12-15T10:38:53.990Z,47.70
2022-12-15T10:39:56.008Z,46.10
2022-12-15T10:41:03.062Z,47.45
2022-12-15T10:42:18.208Z,48.85
2022-12-15T10:43:28.433Z,47.30
2022-12-15T10:44:32.355Z,48.92
2022-12-15T10:45:36.084Z,50.35
2022-12-15T10:46:37.730Z,46.63
2022-12-15T10:47:39.309Z,49.30
2022-12-15T10:48:49.052Z,45.97
2022-12-15T10:49:51.161Z,48.10
2022-12-15T10:50:52.755Z,50.28
2022-12-15T10:51:59.531Z,48.70
2022-12-15T10:53:02.162Z,48.67
2022-12-15T10:54:13.296Z,51.85
2022-12-15T10:55:37.456Z,47.10
2022-12-15T10:56:53.149Z,44.93
2022-12-15T10:58:00.586Z,47.10
2022-12-15T10:59:23.846Z,48.70
2022-12-15T11:00:28.214Z,46.50
2022-12-15T11:01:31.904Z,45.53
2022-12-15T11:02:36.330Z,49.13
2022-12-15T11:03:39.403Z,48.72
2022-12-15T11:04:41.621Z,46.22
2022-12-15T11:05:51.856Z,49.08
2022-12-15T11:07:00.483Z,49.25
2022-12-15T11:08:15.761Z,48.37
2022-12-15T11:09:38.792Z,48.63
2022-12-15T11:11:14.469Z,53.63
2022-12-15T11:13:01.844Z,52.83
2022-12-15T11:14:07.238Z,56.38
2022-12-15T11:15:23.922Z,55.08
2022-12-15T11:16:25.502Z,54.55
2022-12-15T11:17:36.630Z,55.38
2022-12-15T11:18:41.160Z,51.83
2022-12-15T11:20:02.224Z,54.58
2022-12-15T11:21:30.721Z,52.33
2022-12-15T11:22:46.913Z,57.35
2022-12-15T11:24:15.859Z,51.10
2022-12-15T11:25:21.258Z,55.20
2022-12-15T11:26:41.204Z,58.97
2022-12-15T11:27:44.135Z,54.50
2022-12-15T11:28:59.753Z,54.45
2022-12-15T11:30:09.009Z,54.28
2022-12-15T11:31:25.614Z,55.60
2022-12-15T11:32:29.873Z,52.67
2022-12-15T11:33:31.761Z,51.43
2022-12-15T11:34:36.799Z,57.53
2022-12-15T11:35:48.917Z,56.92
2022-12-15T11:36:59.653Z,56.05
2022-12-15T11:38:20.491Z,59.20
2022-12-15T11:39:37.325Z,58.03
2022-12-15T11:40:42.586Z,50.05
2022-12-15T11:42:08.580Z,55.05
2022-12-15T11:43:50.310Z,57.22
2022-12-15T11:45:05.430Z,51.85
2022-12-15T11:46:21.394Z,48.15
2022-12-15T11:47:46.342Z,46.25
2022-12-15T11:48:50.936Z,48.80
2022-12-15T11:50:25.901Z,55.20
2022-12-15T11:51:52.341Z,49.63
2022-12-15T11:53:08.867Z,45.67
2022-12-15T11:54:30.046Z,47.15
2022-12-15T11:55:41.593Z,46.38
2022-12-15T11:56:53.040Z,47.95
2022-12-15T11:58:02.658Z,48.20
2022-12-15T11:59:19.576Z,50.08
2022-12-15T12:00:21.699Z,53.05
2022-12-15T12:02:03.463Z,52.58
2022-12-15T12:03:29.342Z,45.20
2022-12-15T12:04:41.628Z,54.90
2022-12-15T12:05:49.021Z,53.53
2022-12-15T12:07:05.860Z,48.85
2022-12-15T12:08:29.070Z,54.00
2022-12-15T12:09:56.387Z,50.78
2022-12-15T12:11:17.394Z,55.63
2022-12-15T12:12:21.797Z,50.08
2022-12-15T12:13:31.690Z,56.10
2022-12-15T12:14:41.999Z,48.80
2022-12-15T12:16:14.584Z,51.00
2022-12-15T12:17:24.385Z,51.83
2022-12-15T12:18:29.076Z,58.17
2022-12-15T12:19:44.230Z,56.15
2022-12-15T12:20:56.861Z,53.88
2022-12-15T12:22:10.678Z,55.45
2022-12-15T12:23:44.290Z,55.63
2022-12-15T12:24:50.775Z,54.50
2022-12-15T12:26:12.566Z,53.42
2022-12-15T12:27:28.147Z,56.20
2022-12-15T12:28:41.216Z,58.55
2022-12-15T12:29:48.803Z,58.55
2022-12-15T12:30:50.790Z,57.65
2022-12-15T12:32:04.565Z,54.97
2022-12-15T12:33:12.328Z,63.08
2022-12-15T12:34:27.832Z,58.07
2022-12-15T12:35:50.022Z,68.15
2022-12-15T12:36:51.668Z,61.47
2022-12-15T12:38:03.401Z,54.60
2022-12-15T12:39:05.878Z,53.95
2022-12-15T12:40:33.627Z,54.47
2022-12-15T12:41:44.715Z,55.92
2022-12-15T12:42:59.241Z,55.00
2022-12-15T12:44:04.452Z,57.55
2022-12-15T12:45:06.424Z,65.20
2022-12-15T12:46:29.661Z,60.40
2022-12-15T12:47:35.705Z,66.43
2022-12-15T12:49:10.970Z,65.40
2022-12-15T12:50:21.097Z,60.08
2022-12-15T12:51:30.576Z,56.65
2022-12-15T12:52:37.091Z,70.80
2022-12-15T12:53:38.684Z,64.55
2022-12-15T12:54:40.863Z,62.88
2022-12-15T12:55:42.649Z,56.97
2022-12-15T12:56:45.425Z,64.45
2022-12-15T12:57:50.415Z,59.33
2022-12-15T12:58:52.041Z,61.47
2022-12-15T13:00:08.818Z,64.10
2022-12-15T13:01:25.364Z,67.95
2022-12-15T13:02:27.255Z,69.35
2022-12-15T13:03:29.410Z,69.60
2022-12-15T13:04:33.946Z,61.40
2022-12-15T13:05:37.227Z,72.88
2022-12-15T13:06:38.770Z,65.43
2022-12-15T13:07:43.454Z,67.73
2022-12-15T13:08:55.857Z,70.07
2022-12-15T13:10:09.233Z,60.45
2022-12-15T13:11:49.393Z,59.08
2022-12-15T13:12:53.904Z,65.93
2022-12-15T13:13:56.107Z,64.35
2022-12-15T13:14:57.680Z,59.92
2022-12-15T13:16:20.477Z,62.40
2022-12-15T13:17:28.387Z,65.30
2022-12-15T13:18:32.774Z,60.85
2022-12-15T13:20:00.563Z,58.43
2022-12-15T13:21:02.208Z,60.10
2022-12-15T13:22:03.865Z,57.10
2022-12-15T13:23:23.331Z,65.75
2022-12-15T13:24:33.240Z,69.20
2022-12-15T13:25:40.278Z,77.07
2022-12-15T13:26:43.784Z,71.50
2022-12-15T13:27:51.313Z,75.05
2022-12-15T13:28:53.061Z,86.80
2022-12-15T13:30:14.904Z,91.88
2022-12-15T13:31:20.902Z,88.33
2022-12-15T13:32:31.659Z,86.15
2022-12-15T13:33:33.737Z,73.72
2022-12-15T13:34:39.086Z,68.03
2022-12-15T13:35:40.677Z,72.90
2022-12-15T13:36:42.291Z,78.70
2022-12-15T13:37:55.833Z,79.22
2022-12-15T13:38:57.467Z,73.47
2022-12-15T13:39:59.183Z,76.32
2022-12-15T13:41:00.849Z,74.82
2022-12-15T13:43:27.672Z,78.95
2022-12-15T13:44:35.516Z,72.28
2022-12-15T13:45:50.454Z,81.35
2022-12-15T13:46:53.578Z,85.28
2022-12-15T13:47:55.275Z,85.82
2022-12-15T13:49:12.395Z,76.82
2022-12-15T13:50:27.967Z,75.63
2022-12-15T13:51:33.722Z,76.63
2022-12-15T13:53:17.850Z,78.53
2022-12-15T13:54:35.489Z,78.43
2022-12-15T13:55:38.815Z,84.57
2022-12-15T13:56:56.021Z,87.10
2022-12-15T13:58:00.828Z,98.25
2022-12-15T13:59:31.593Z,100.07
2022-12-15T14:00:33.309Z,103.45
2022-12-15T14:01:34.971Z,108.90
2022-12-15T14:02:36.861Z,100.40
2022-12-15T14:03:38.955Z,100.30
2022-12-15T14:04:40.875Z,96.17
2022-12-15T14:05:51.177Z,94.68
2022-12-15T14:06:54.215Z,108.75
2022-12-15T14:07:56.781Z,101.45
2022-12-15T14:08:58.369Z,91.20
2022-12-15T14:10:00.663Z,85.47
2022-12-15T14:11:16.469Z,76.43
2022-12-15T14:12:23.923Z,76.50
2022-12-15T14:13:34.419Z,82.13
2022-12-15T14:14:37.051Z,81.33
2022-12-15T14:15:44.939Z,80.15
2022-12-15T14:16:47.426Z,81.60
2022-12-15T14:17:52.102Z,94.35
2022-12-15T14:19:25.829Z,82.70
2022-12-15T14:20:32.176Z,82.13
2022-12-15T14:21:34.020Z,83.78
2022-12-15T14:22:35.581Z,87.97
2022-12-15T14:24:03.887Z,106.43
2022-12-15T14:25:21.058Z,88.30
2022-12-15T14:26:30.735Z,96.63
2022-12-15T14:27:32.960Z,97.65
2022-12-15T14:28:36.257Z,101.15
2022-12-15T14:29:38.221Z,95.95
2022-12-15T14:30:40.260Z,94.07
2022-12-15T14:31:42.243Z,92.47
2022-12-15T14:32:44.189Z,88.93
2022-12-15T14:33:50.653Z,80.20
2022-12-15T14:34:52.517Z,84.22
2022-12-15T14:35:55.808Z,88.55
2022-12-15T14:36:58.769Z,91.07
2022-12-15T14:38:01.791Z,93.63
2022-12-15T14:39:05.401Z,93.60
2022-12-15T14:40:07.489Z,90.03
2022-12-15T14:41:11.130Z,94.43
2022-12-15T14:42:19.982Z,89.55
2022-12-15T14:43:23.875Z,87.20
2022-12-15T14:46:08.713Z,95.38
2022-12-15T14:47:36.211Z,93.35